Blackcomb Spirit — C6BC4 — position and weather

sailwx.info

Track history (hours):
 
Tides and Currents Weather Stations Pressure Air Temp Water Temp Dewpoint Dewpoint Depression Visibility Wind Speed Wind Dir Waves Ship Positions

Blackcomb Spirit

Last reported at 2018-Apr-22 19:37 UTC. Time now 2018-Apr-23 05:35 UTC.
Position N 29°35' W 093°14'.

Length 243 m; draft 8.2 m.

Type: Tanker. MMSI: 311000223.

Date/timePositionNaut miles runAvg speedWind from/ knotsBaromVisibWave heightAir tempDewpointWater temp
2018-Apr-22 19:37N 29°35' W 093°14'10 4.9
2018-Apr-22 17:36N 29°43' W 093°20'112.3
2018-Apr-22 17:30N 29°44' W 093°20'510.8
2018-Apr-22 17:00N 29°50' W 093°21'5 9.3
2018-Apr-22 16:30N 29°54' W 093°21'4 8.8
2018-Apr-22 16:00N 29°59' W 093°20'4 7.4
2018-Apr-22 15:30N 30°02' W 093°20'4 8.2
2018-Apr-22 15:00N 30°06' W 093°20'3 5.2
2018-Apr-22 14:30N 30°09' W 093°20'1 1.3
2018-Apr-22 14:00N 30°10' W 093°20'0 0.0
2018-Apr-22 13:29N 30°10' W 093°20'0 0.0
2018-Apr-22 12:59N 30°10' W 093°20'0 0.0
2018-Apr-22 12:29N 30°10' W 093°20'0 0.0
2018-Apr-22 11:59N 30°10' W 093°20'0 0.0
2018-Apr-22 11:29N 30°10' W 093°20'0 0.0
2018-Apr-22 10:59N 30°10' W 093°20'0 0.0
2018-Apr-22 10:29N 30°10' W 093°20'0 0.0
2018-Apr-22 09:59N 30°10' W 093°20'0 0.0
2018-Apr-22 09:29N 30°10' W 093°20'0 0.0
2018-Apr-22 08:59N 30°10' W 093°20'0 0.0
2018-Apr-22 08:26N 30°10' W 093°20'0 0.0
2018-Apr-22 07:59N 30°10' W 093°20'0 0.0
2018-Apr-22 07:29N 30°10' W 093°20'0 0.0
2018-Apr-22 06:56N 30°10' W 093°20'0 0.0
2018-Apr-22 06:29N 30°10' W 093°20'0 0.0
2018-Apr-22 05:59N 30°10' W 093°20'0 0.0
2018-Apr-22 05:29N 30°10' W 093°20'0 0.0
2018-Apr-22 04:59N 30°10' W 093°20'0 0.0
2018-Apr-22 04:26N 30°10' W 093°20'0 0.0
2018-Apr-22 03:59N 30°10' W 093°20'0 0.0
2018-Apr-22 03:29N 30°10' W 093°20'0 0.0
2018-Apr-22 02:59N 30°10' W 093°20'0 0.0
2018-Apr-22 02:29N 30°10' W 093°20'0 0.0
2018-Apr-22 01:59N 30°10' W 093°20'0 0.0
2018-Apr-22 01:29N 30°10' W 093°20'0 0.0
2018-Apr-22 00:59N 30°10' W 093°20'0 0.0
2018-Apr-22 00:29N 30°10' W 093°20'0 0.0
2018-Apr-21 23:59N 30°10' W 093°20'0 0.0
2018-Apr-21 23:29N 30°10' W 093°20'0 0.0
2018-Apr-21 22:59N 30°10' W 093°20'0 0.0
2018-Apr-21 22:29N 30°10' W 093°20'0 0.0
2018-Apr-21 21:59N 30°10' W 093°20'0 0.0
2018-Apr-21 21:29N 30°10' W 093°20'0 0.0
2018-Apr-21 20:59N 30°10' W 093°20'0 0.0
2018-Apr-21 20:29N 30°10' W 093°20'0 0.0
2018-Apr-21 19:59N 30°10' W 093°20'0 0.0
2018-Apr-21 19:29N 30°10' W 093°20'0 0.0
2018-Apr-21 18:59N 30°10' W 093°20'0 0.0
2018-Apr-21 18:29N 30°10' W 093°20'0 0.0
2018-Apr-21 17:59N 30°10' W 093°20'0 0.0
2018-Apr-21 17:29N 30°10' W 093°20'0 0.0
2018-Apr-21 16:59N 30°10' W 093°20'0 0.0
2018-Apr-21 16:29N 30°10' W 093°20'0 0.0
2018-Apr-21 15:59N 30°10' W 093°20'0 0.0
2018-Apr-21 15:29N 30°10' W 093°20'0 0.0
2018-Apr-21 14:59N 30°10' W 093°20'0 0.0
2018-Apr-21 14:29N 30°10' W 093°20'0 0.2
2018-Apr-21 14:00N 30°09' W 093°20'2 3.8
2018-Apr-21 13:30N 30°08' W 093°20'4 7.1
2018-Apr-21 13:00N 30°04' W 093°20'4 7.0
2018-Apr-21 12:30N 30°00' W 093°20'4 7.1
2018-Apr-21 12:00N 29°57' W 093°20'4 7.9
2018-Apr-21 11:30N 29°53' W 093°21'5 9.0
2018-Apr-21 11:00N 29°48' W 093°21'5 9.6
2018-Apr-21 10:30N 29°44' W 093°20'612.0
2018-Apr-21 10:00N 29°38' W 093°19'6 0.2
2018-Apr-20 02:57N 29°35' W 093°14'0 0.1
2018-Apr-20 02:27N 29°35' W 093°14'0 0.0
2018-Apr-19 03:15N 29°35' W 093°14'1 0.1
2018-Apr-18 22:09N 29°34' W 093°14'1 3.6
2018-Apr-18 22:00N 29°34' W 093°15'10 9.1
2018-Apr-18 20:56N 29°43' W 093°20'4 9.7
2018-Apr-18 20:30N 29°47' W 093°21'5 9.1
2018-Apr-18 20:00N 29°52' W 093°21'4 8.6
2018-Apr-18 19:30N 29°56' W 093°20'4 8.0
2018-Apr-18 19:00N 29°60' W 093°20'3 6.8
2018-Apr-18 18:30N 30°03' W 093°20'4 7.5
2018-Apr-18 18:00N 30°07' W 093°20'3 5.9
2018-Apr-18 17:30N 30°10' W 093°19'1 2.2
2018-Apr-18 17:00N 30°11' W 093°19'0 0.6
2018-Apr-18 16:30N 30°11' W 093°19'0 0.0
2018-Apr-18 16:00N 30°11' W 093°19'0 0.0
2018-Apr-17 14:07N 30°11' W 093°19'0 0.0
2018-Apr-17 13:55N 30°11' W 093°19'0 0.0
2018-Apr-17 13:28N 30°11' W 093°19'0 0.0
2018-Apr-17 12:55N 30°11' W 093°19'0 0.0
2018-Apr-17 12:28N 30°11' W 093°19'0 0.0
2018-Apr-17 11:58N 30°11' W 093°19'1 2.5
2018-Apr-17 11:30N 30°10' W 093°19'2 4.5
2018-Apr-17 11:00N 30°07' W 093°20'3 5.9
2018-Apr-17 10:30N 30°04' W 093°20'3 6.9
2018-Apr-17 10:00N 30°01' W 093°20'3 6.2
2018-Apr-17 09:30N 29°58' W 093°20'4 7.6
2018-Apr-17 09:00N 29°54' W 093°21'5 9.4
2018-Apr-17 08:30N 29°49' W 093°21'5 9.7
2018-Apr-17 08:00N 29°45' W 093°20'611.1
2018-Apr-17 07:29N 29°39' W 093°19'511.3
2018-Apr-17 07:00N 29°34' W 093°16'611.7
2018-Apr-17 06:30N 29°29' W 093°13'612.6
2018-Apr-17 06:00N 29°23' W 093°13'4 8.6
2018-Apr-17 05:30N 29°18' W 093°13'713.4
2018-Apr-17 05:00N 29°12' W 093°13'611.2
2018-Apr-17 04:29N 29°06' W 093°13'3 6.9
2018-Apr-17 04:00N 29°03' W 093°15'4 3.0
2018-Apr-17 02:48N 29°06' W 093°13'3 9.8
2018-Apr-17 02:30N 29°04' W 093°14'712.4
2018-Apr-17 01:57N 28°60' W 093°21'611.9
2018-Apr-17 01:25N 28°57' W 093°27'612.3
2018-Apr-17 00:55N 28°54' W 093°33'1212.2
2018-Apr-16 23:55N 28°48' W 093°45'612.4
2018-Apr-16 23:26N 28°43' W 093°50'612.5
2018-Apr-16 22:59N 28°39' W 093°54'  
Track history (hours):
 
Tides and Currents Weather Stations Pressure Air Temp Water Temp Dewpoint Dewpoint Depression Visibility Wind Speed Wind Dir Waves Ship Positions

Blackcomb Spirit

Last reported at 2018-Apr-22 19:37 UTC. Time now 2018-Apr-23 05:35 UTC.
Position N 29°35' W 093°14'.

Length 243 m; draft 8.2 m.

Type: Tanker. MMSI: 311000223.

Date/timePositionNaut miles runAvg speedWind from/ knotsBaromVisibWave heightAir tempDewpointWater temp
2018-Apr-22 19:37N 29°35' W 093°14'10 4.9
2018-Apr-22 17:36N 29°43' W 093°20'112.3
2018-Apr-22 17:30N 29°44' W 093°20'510.8
2018-Apr-22 17:00N 29°50' W 093°21'5 9.3
2018-Apr-22 16:30N 29°54' W 093°21'4 8.8
2018-Apr-22 16:00N 29°59' W 093°20'4 7.4
2018-Apr-22 15:30N 30°02' W 093°20'4 8.2
2018-Apr-22 15:00N 30°06' W 093°20'3 5.2
2018-Apr-22 14:30N 30°09' W 093°20'1 1.3
2018-Apr-22 14:00N 30°10' W 093°20'0 0.0
2018-Apr-22 13:29N 30°10' W 093°20'0 0.0
2018-Apr-22 12:59N 30°10' W 093°20'0 0.0
2018-Apr-22 12:29N 30°10' W 093°20'0 0.0
2018-Apr-22 11:59N 30°10' W 093°20'0 0.0
2018-Apr-22 11:29N 30°10' W 093°20'0 0.0
2018-Apr-22 10:59N 30°10' W 093°20'0 0.0
2018-Apr-22 10:29N 30°10' W 093°20'0 0.0
2018-Apr-22 09:59N 30°10' W 093°20'0 0.0
2018-Apr-22 09:29N 30°10' W 093°20'0 0.0
2018-Apr-22 08:59N 30°10' W 093°20'0 0.0
2018-Apr-22 08:26N 30°10' W 093°20'0 0.0
2018-Apr-22 07:59N 30°10' W 093°20'0 0.0
2018-Apr-22 07:29N 30°10' W 093°20'0 0.0
2018-Apr-22 06:56N 30°10' W 093°20'0 0.0
2018-Apr-22 06:29N 30°10' W 093°20'0 0.0
2018-Apr-22 05:59N 30°10' W 093°20'0 0.0
2018-Apr-22 05:29N 30°10' W 093°20'0 0.0
2018-Apr-22 04:59N 30°10' W 093°20'0 0.0
2018-Apr-22 04:26N 30°10' W 093°20'0 0.0
2018-Apr-22 03:59N 30°10' W 093°20'0 0.0
2018-Apr-22 03:29N 30°10' W 093°20'0 0.0
2018-Apr-22 02:59N 30°10' W 093°20'0 0.0
2018-Apr-22 02:29N 30°10' W 093°20'0 0.0
2018-Apr-22 01:59N 30°10' W 093°20'0 0.0
2018-Apr-22 01:29N 30°10' W 093°20'0 0.0
2018-Apr-22 00:59N 30°10' W 093°20'0 0.0
2018-Apr-22 00:29N 30°10' W 093°20'0 0.0
2018-Apr-21 23:59N 30°10' W 093°20'0 0.0
2018-Apr-21 23:29N 30°10' W 093°20'0 0.0
2018-Apr-21 22:59N 30°10' W 093°20'0 0.0
2018-Apr-21 22:29N 30°10' W 093°20'0 0.0
2018-Apr-21 21:59N 30°10' W 093°20'0 0.0
2018-Apr-21 21:29N 30°10' W 093°20'0 0.0
2018-Apr-21 20:59N 30°10' W 093°20'0 0.0
2018-Apr-21 20:29N 30°10' W 093°20'0 0.0
2018-Apr-21 19:59N 30°10' W 093°20'0 0.0
2018-Apr-21 19:29N 30°10' W 093°20'0 0.0
2018-Apr-21 18:59N 30°10' W 093°20'0 0.0
2018-Apr-21 18:29N 30°10' W 093°20'0 0.0
2018-Apr-21 17:59N 30°10' W 093°20'0 0.0
2018-Apr-21 17:29N 30°10' W 093°20'0 0.0
2018-Apr-21 16:59N 30°10' W 093°20'0 0.0
2018-Apr-21 16:29N 30°10' W 093°20'0 0.0
2018-Apr-21 15:59N 30°10' W 093°20'0 0.0
2018-Apr-21 15:29N 30°10' W 093°20'0 0.0
2018-Apr-21 14:59N 30°10' W 093°20'0 0.0
2018-Apr-21 14:29N 30°10' W 093°20'0 0.2
2018-Apr-21 14:00N 30°09' W 093°20'2 3.8
2018-Apr-21 13:30N 30°08' W 093°20'4 7.1
2018-Apr-21 13:00N 30°04' W 093°20'4 7.0
2018-Apr-21 12:30N 30°00' W 093°20'4 7.1
2018-Apr-21 12:00N 29°57' W 093°20'4 7.9
2018-Apr-21 11:30N 29°53' W 093°21'5 9.0
2018-Apr-21 11:00N 29°48' W 093°21'5 9.6
2018-Apr-21 10:30N 29°44' W 093°20'612.0
2018-Apr-21 10:00N 29°38' W 093°19'6 0.2
2018-Apr-20 02:57N 29°35' W 093°14'0 0.1
2018-Apr-20 02:27N 29°35' W 093°14'0 0.0
2018-Apr-19 03:15N 29°35' W 093°14'1 0.1
2018-Apr-18 22:09N 29°34' W 093°14'1 3.6
2018-Apr-18 22:00N 29°34' W 093°15'10 9.1
2018-Apr-18 20:56N 29°43' W 093°20'4 9.7
2018-Apr-18 20:30N 29°47' W 093°21'5 9.1
2018-Apr-18 20:00N 29°52' W 093°21'4 8.6
2018-Apr-18 19:30N 29°56' W 093°20'4 8.0
2018-Apr-18 19:00N 29°60' W 093°20'3 6.8
2018-Apr-18 18:30N 30°03' W 093°20'4 7.5
2018-Apr-18 18:00N 30°07' W 093°20'3 5.9
2018-Apr-18 17:30N 30°10' W 093°19'1 2.2
2018-Apr-18 17:00N 30°11' W 093°19'0 0.6
2018-Apr-18 16:30N 30°11' W 093°19'0 0.0
2018-Apr-18 16:00N 30°11' W 093°19'0 0.0
2018-Apr-17 14:07N 30°11' W 093°19'0 0.0
2018-Apr-17 13:55N 30°11' W 093°19'0 0.0
2018-Apr-17 13:28N 30°11' W 093°19'0 0.0
2018-Apr-17 12:55N 30°11' W 093°19'0 0.0
2018-Apr-17 12:28N 30°11' W 093°19'0 0.0
2018-Apr-17 11:58N 30°11' W 093°19'1 2.5
2018-Apr-17 11:30N 30°10' W 093°19'2 4.5
2018-Apr-17 11:00N 30°07' W 093°20'3 5.9
2018-Apr-17 10:30N 30°04' W 093°20'3 6.9
2018-Apr-17 10:00N 30°01' W 093°20'3 6.2
2018-Apr-17 09:30N 29°58' W 093°20'4 7.6
2018-Apr-17 09:00N 29°54' W 093°21'5 9.4
2018-Apr-17 08:30N 29°49' W 093°21'5 9.7
2018-Apr-17 08:00N 29°45' W 093°20'611.1
2018-Apr-17 07:29N 29°39' W 093°19'511.3
2018-Apr-17 07:00N 29°34' W 093°16'611.7
2018-Apr-17 06:30N 29°29' W 093°13'612.6
2018-Apr-17 06:00N 29°23' W 093°13'4 8.6
2018-Apr-17 05:30N 29°18' W 093°13'713.4
2018-Apr-17 05:00N 29°12' W 093°13'611.2
2018-Apr-17 04:29N 29°06' W 093°13'3 6.9
2018-Apr-17 04:00N 29°03' W 093°15'4 3.0
2018-Apr-17 02:48N 29°06' W 093°13'3 9.8
2018-Apr-17 02:30N 29°04' W 093°14'712.4
2018-Apr-17 01:57N 28°60' W 093°21'611.9
2018-Apr-17 01:25N 28°57' W 093°27'612.3
2018-Apr-17 00:55N 28°54' W 093°33'1212.2
2018-Apr-16 23:55N 28°48' W 093°45'612.4
2018-Apr-16 23:26N 28°43' W 093°50'612.5
2018-Apr-16 22:59N 28°39' W 093°54'  

Dump ship's entire track history